sensor_id;sensor_type;location;lat;lon;timestamp;pressure;altitude;pressure_sealevel;temperature
69420;BMP280;56612;52.030;113.524;2023-03-01T00:00:42;94101.63;;;-13.10
69420;BMP280;56612;52.030;113.524;2023-03-01T00:03:50;94104.59;;;-12.86
69420;BMP280;56612;52.030;113.524;2023-03-01T00:06:55;94081.97;;;-12.76
69420;BMP280;56612;52.030;113.524;2023-03-01T00:09:58;94089.56;;;-12.56
69420;BMP280;56612;52.030;113.524;2023-03-01T00:13:02;94079.03;;;-12.52
69420;BMP280;56612;52.030;113.524;2023-03-01T00:16:10;94089.59;;;-12.50
69420;BMP280;56612;52.030;113.524;2023-03-01T00:19:17;94091.84;;;-12.64
69420;BMP280;56612;52.030;113.524;2023-03-01T00:22:21;94103.13;;;-12.61
69420;BMP280;56612;52.030;113.524;2023-03-01T00:25:26;94080.84;;;-12.70
69420;BMP280;56612;52.030;113.524;2023-03-01T00:28:29;94087.81;;;-12.76
69420;BMP280;56612;52.030;113.524;2023-03-01T00:31:34;94081.72;;;-12.78
69420;BMP280;56612;52.030;113.524;2023-03-01T00:34:39;94084.19;;;-12.52
69420;BMP280;56612;52.030;113.524;2023-03-01T00:37:43;94084.50;;;-12.39
69420;BMP280;56612;52.030;113.524;2023-03-01T00:40:45;94075.41;;;-12.29
69420;BMP280;56612;52.030;113.524;2023-03-01T00:43:49;94083.88;;;-12.12
69420;BMP280;56612;52.030;113.524;2023-03-01T00:46:53;94080.19;;;-11.94
69420;BMP280;56612;52.030;113.524;2023-03-01T00:49:57;94093.84;;;-11.71
69420;BMP280;56612;52.030;113.524;2023-03-01T00:53:02;94089.41;;;-11.65
69420;BMP280;56612;52.030;113.524;2023-03-01T00:56:07;94089.19;;;-11.50
69420;BMP280;56612;52.030;113.524;2023-03-01T00:59:11;94091.06;;;-11.45
69420;BMP280;56612;52.030;113.524;2023-03-01T01:02:15;94089.19;;;-11.11
69420;BMP280;56612;52.030;113.524;2023-03-01T01:05:19;94088.59;;;-10.64
69420;BMP280;56612;52.030;113.524;2023-03-01T01:08:23;94101.47;;;-9.89
69420;BMP280;56612;52.030;113.524;2023-03-01T01:11:29;94099.59;;;-9.17
69420;BMP280;56612;52.030;113.524;2023-03-01T01:14:33;94092.38;;;-8.57
69420;BMP280;56612;52.030;113.524;2023-03-01T01:17:38;94122.28;;;-7.93
69420;BMP280;56612;52.030;113.524;2023-03-01T01:20:41;94112.38;;;-7.57
69420;BMP280;56612;52.030;113.524;2023-03-01T01:23:46;94110.94;;;-7.26
69420;BMP280;56612;52.030;113.524;2023-03-01T01:26:50;94107.97;;;-7.04
69420;BMP280;56612;52.030;113.524;2023-03-01T01:29:53;94097.03;;;-6.97
69420;BMP280;56612;52.030;113.524;2023-03-01T01:32:57;94091.69;;;-7.17
69420;BMP280;56612;52.030;113.524;2023-03-01T01:36:00;94089.22;;;-7.55
69420;BMP280;56612;52.030;113.524;2023-03-01T01:39:04;94092.69;;;-7.66
69420;BMP280;56612;52.030;113.524;2023-03-01T01:42:18;94096.56;;;-7.40
69420;BMP280;56612;52.030;113.524;2023-03-01T01:45:32;94095.19;;;-7.15
69420;BMP280;56612;52.030;113.524;2023-03-01T01:48:46;94106.09;;;-6.90
69420;BMP280;56612;52.030;113.524;2023-03-01T01:51:57;94105.19;;;-6.92
69420;BMP280;56612;52.030;113.524;2023-03-01T01:55:09;94099.88;;;-6.47
69420;BMP280;56612;52.030;113.524;2023-03-01T01:58:18;94107.13;;;-6.19
69420;BMP280;56612;52.030;113.524;2023-03-01T02:01:22;94093.38;;;-6.06
69420;BMP280;56612;52.030;113.524;2023-03-01T02:04:26;94098.44;;;-5.46
69420;BMP280;56612;52.030;113.524;2023-03-01T02:07:30;94096.53;;;-5.24
69420;BMP280;56612;52.030;113.524;2023-03-01T02:10:34;94104.72;;;-4.92
69420;BMP280;56612;52.030;113.524;2023-03-01T02:13:38;94099.66;;;-4.61
69420;BMP280;56612;52.030;113.524;2023-03-01T02:16:43;94085.09;;;-3.82
69420;BMP280;56612;52.030;113.524;2023-03-01T02:20:17;94093.31;;;-2.69
69420;BMP280;56612;52.030;113.524;2023-03-01T02:23:22;94081.81;;;-2.34
69420;BMP280;56612;52.030;113.524;2023-03-01T02:29:41;94089.00;;;-2.42
69420;BMP280;56612;52.030;113.524;2023-03-01T02:32:50;94078.78;;;-1.65
69420;BMP280;56612;52.030;113.524;2023-03-01T02:35:54;94071.03;;;-1.80
69420;BMP280;56612;52.030;113.524;2023-03-01T02:39:01;94066.81;;;-1.76
69420;BMP280;56612;52.030;113.524;2023-03-01T02:42:06;94067.63;;;-1.65
69420;BMP280;56612;52.030;113.524;2023-03-01T02:45:11;94056.34;;;-1.33
69420;BMP280;56612;52.030;113.524;2023-03-01T02:48:14;94059.44;;;-0.39
69420;BMP280;56612;52.030;113.524;2023-03-01T02:51:51;94049.19;;;0.68
69420;BMP280;56612;52.030;113.524;2023-03-01T02:58:10;94031.88;;;1.03
69420;BMP280;56612;52.030;113.524;2023-03-01T03:01:14;94022.25;;;1.37
69420;BMP280;56612;52.030;113.524;2023-03-01T03:04:19;94032.00;;;1.65
69420;BMP280;56612;52.030;113.524;2023-03-01T03:07:24;94025.25;;;0.64
69420;BMP280;56612;52.030;113.524;2023-03-01T03:10:31;94024.41;;;0.51
69420;BMP280;56612;52.030;113.524;2023-03-01T03:13:34;94019.56;;;0.48
69420;BMP280;56612;52.030;113.524;2023-03-01T03:16:41;94030.63;;;1.64
69420;BMP280;56612;52.030;113.524;2023-03-01T03:19:45;94014.22;;;2.82
69420;BMP280;56612;52.030;113.524;2023-03-01T03:22:53;94007.97;;;3.81
69420;BMP280;56612;52.030;113.524;2023-03-01T03:25:56;94011.06;;;4.75
69420;BMP280;56612;52.030;113.524;2023-03-01T03:29:00;94016.06;;;5.08
69420;BMP280;56612;52.030;113.524;2023-03-01T03:32:04;94003.84;;;4.89
69420;BMP280;56612;52.030;113.524;2023-03-01T03:35:09;94012.38;;;5.27
69420;BMP280;56612;52.030;113.524;2023-03-01T03:38:14;94001.19;;;5.69
69420;BMP280;56612;52.030;113.524;2023-03-01T03:41:20;93985.81;;;4.23
69420;BMP280;56612;52.030;113.524;2023-03-01T03:44:24;93978.41;;;2.91
69420;BMP280;56612;52.030;113.524;2023-03-01T03:47:28;93986.19;;;1.80
69420;BMP280;56612;52.030;113.524;2023-03-01T03:50:32;93976.66;;;0.74
69420;BMP280;56612;52.030;113.524;2023-03-01T03:53:35;93968.50;;;-0.34
69420;BMP280;56612;52.030;113.524;2023-03-01T03:56:39;93976.25;;;-0.63
69420;BMP280;56612;52.030;113.524;2023-03-01T03:59:42;93962.38;;;-1.10
69420;BMP280;56612;52.030;113.524;2023-03-01T04:02:46;93955.66;;;-1.03
69420;BMP280;56612;52.030;113.524;2023-03-01T04:05:51;93952.13;;;-0.89
69420;BMP280;56612;52.030;113.524;2023-03-01T04:08:55;93942.03;;;-0.92
69420;BMP280;56612;52.030;113.524;2023-03-01T04:12:01;93943.59;;;-1.06
69420;BMP280;56612;52.030;113.524;2023-03-01T04:15:06;93931.59;;;-0.82
69420;BMP280;56612;52.030;113.524;2023-03-01T04:18:18;93922.63;;;-1.51
69420;BMP280;56612;52.030;113.524;2023-03-01T04:21:22;93922.00;;;-1.24
69420;BMP280;56612;52.030;113.524;2023-03-01T04:24:26;93917.75;;;-0.93
69420;BMP280;56612;52.030;113.524;2023-03-01T04:27:29;93909.69;;;-0.68
69420;BMP280;56612;52.030;113.524;2023-03-01T04:30:35;93899.66;;;-0.52
69420;BMP280;56612;52.030;113.524;2023-03-01T04:33:47;93898.47;;;-0.32
69420;BMP280;56612;52.030;113.524;2023-03-01T04:36:51;93886.88;;;-0.65
69420;BMP280;56612;52.030;113.524;2023-03-01T04:39:55;93871.28;;;-0.73
69420;BMP280;56612;52.030;113.524;2023-03-01T04:42:59;93870.50;;;-0.46
69420;BMP280;56612;52.030;113.524;2023-03-01T04:46:07;93881.34;;;-0.04
69420;BMP280;56612;52.030;113.524;2023-03-01T04:49:12;93878.88;;;-0.02
69420;BMP280;56612;52.030;113.524;2023-03-01T04:52:16;93859.63;;;-0.23
69420;BMP280;56612;52.030;113.524;2023-03-01T04:55:20;93874.53;;;-0.36
69420;BMP280;56612;52.030;113.524;2023-03-01T04:58:25;93856.84;;;-0.35
69420;BMP280;56612;52.030;113.524;2023-03-01T05:01:29;93854.31;;;-0.52
69420;BMP280;56612;52.030;113.524;2023-03-01T05:04:32;93832.34;;;-0.67
69420;BMP280;56612;52.030;113.524;2023-03-01T05:07:36;93819.78;;;-0.59
69420;BMP280;56612;52.030;113.524;2023-03-01T05:10:40;93828.75;;;-0.62
69420;BMP280;56612;52.030;113.524;2023-03-01T05:13:45;93808.59;;;-1.05
69420;BMP280;56612;52.030;113.524;2023-03-01T05:16:49;93806.63;;;-1.24
69420;BMP280;56612;52.030;113.524;2023-03-01T05:19:53;93805.88;;;-1.34
69420;BMP280;56612;52.030;113.524;2023-03-01T05:22:59;93797.22;;;-1.27
69420;BMP280;56612;52.030;113.524;2023-03-01T05:26:05;93794.75;;;-1.25
69420;BMP280;56612;52.030;113.524;2023-03-01T05:29:13;93795.22;;;-1.09
69420;BMP280;56612;52.030;113.524;2023-03-01T05:32:17;93786.13;;;-0.99
69420;BMP280;56612;52.030;113.524;2023-03-01T05:35:23;93786.63;;;-1.47
69420;BMP280;56612;52.030;113.524;2023-03-01T05:38:26;93772.38;;;-1.63
69420;BMP280;56612;52.030;113.524;2023-03-01T05:41:30;93773.78;;;-1.52
69420;BMP280;56612;52.030;113.524;2023-03-01T05:44:34;93758.13;;;-1.69
69420;BMP280;56612;52.030;113.524;2023-03-01T05:47:43;93763.16;;;-1.54
69420;BMP280;56612;52.030;113.524;2023-03-01T05:50:47;93752.13;;;-1.53
69420;BMP280;56612;52.030;113.524;2023-03-01T05:53:51;93755.31;;;-1.98
69420;BMP280;56612;52.030;113.524;2023-03-01T05:56:55;93733.69;;;-1.99
69420;BMP280;56612;52.030;113.524;2023-03-01T05:59:59;93735.09;;;-1.98
69420;BMP280;56612;52.030;113.524;2023-03-01T06:03:15;93733.69;;;-1.99
69420;BMP280;56612;52.030;113.524;2023-03-01T06:06:19;93727.78;;;-1.73
69420;BMP280;56612;52.030;113.524;2023-03-01T06:09:23;93737.97;;;-1.77
69420;BMP280;56612;52.030;113.524;2023-03-01T06:12:33;93722.50;;;-1.82
69420;BMP280;56612;52.030;113.524;2023-03-01T06:15:38;93720.81;;;-1.87
69420;BMP280;56612;52.030;113.524;2023-03-01T06:18:42;93726.69;;;-1.69
69420;BMP280;56612;52.030;113.524;2023-03-01T06:21:46;93704.31;;;-1.44
69420;BMP280;56612;52.030;113.524;2023-03-01T06:24:50;93712.13;;;-1.07
69420;BMP280;56612;52.030;113.524;2023-03-01T06:27:58;93703.16;;;-1.50
69420;BMP280;56612;52.030;113.524;2023-03-01T06:31:02;93706.19;;;-1.54
69420;BMP280;56612;52.030;113.524;2023-03-01T06:34:05;93692.53;;;-1.62
69420;BMP280;56612;52.030;113.524;2023-03-01T06:37:09;93693.78;;;-1.53
69420;BMP280;56612;52.030;113.524;2023-03-01T06:40:12;93680.03;;;-1.81
69420;BMP280;56612;52.030;113.524;2023-03-01T06:43:18;93670.38;;;-1.78
69420;BMP280;56612;52.030;113.524;2023-03-01T06:46:21;93669.19;;;-1.77
69420;BMP280;56612;52.030;113.524;2023-03-01T06:49:25;93660.72;;;-1.85
69420;BMP280;56612;52.030;113.524;2023-03-01T06:52:29;93653.63;;;-1.65
69420;BMP280;56612;52.030;113.524;2023-03-01T06:55:33;93650.56;;;-1.98
69420;BMP280;56612;52.030;113.524;2023-03-01T06:58:37;93629.09;;;-2.51
69420;BMP280;56612;52.030;113.524;2023-03-01T07:01:41;93633.13;;;-2.23
69420;BMP280;56612;52.030;113.524;2023-03-01T07:04:44;93631.13;;;-2.05
69420;BMP280;56612;52.030;113.524;2023-03-01T07:07:47;93620.66;;;-2.32
69420;BMP280;56612;52.030;113.524;2023-03-01T07:11:00;93612.66;;;-2.34
69420;BMP280;56612;52.030;113.524;2023-03-01T07:14:05;93603.81;;;-2.39
69420;BMP280;56612;52.030;113.524;2023-03-01T07:17:09;93612.31;;;-2.21
69420;BMP280;56612;52.030;113.524;2023-03-01T07:20:13;93603.69;;;-2.14
69420;BMP280;56612;52.030;113.524;2023-03-01T07:23:17;93596.91;;;-2.17
69420;BMP280;56612;52.030;113.524;2023-03-01T07:26:20;93596.13;;;-2.00
69420;BMP280;56612;52.030;113.524;2023-03-01T07:29:27;93579.94;;;-1.79
69420;BMP280;56612;52.030;113.524;2023-03-01T07:32:31;93578.47;;;-1.63
69420;BMP280;56612;52.030;113.524;2023-03-01T07:35:35;93572.03;;;-1.42
69420;BMP280;56612;52.030;113.524;2023-03-01T07:38:39;93564.88;;;-1.32
69420;BMP280;56612;52.030;113.524;2023-03-01T07:41:42;93566.94;;;-1.21
69420;BMP280;56612;52.030;113.524;2023-03-01T07:44:46;93560.41;;;-0.72
69420;BMP280;56612;52.030;113.524;2023-03-01T07:47:51;93552.38;;;-0.23
69420;BMP280;56612;52.030;113.524;2023-03-01T07:50:54;93550.63;;;0.43
69420;BMP280;56612;52.030;113.524;2023-03-01T07:53:58;93546.00;;;0.53
69420;BMP280;56612;52.030;113.524;2023-03-01T07:57:00;93545.25;;;0.96
69420;BMP280;56612;52.030;113.524;2023-03-01T08:00:04;93547.38;;;0.33
69420;BMP280;56612;52.030;113.524;2023-03-01T08:03:12;93545.88;;;-0.22
69420;BMP280;56612;52.030;113.524;2023-03-01T08:06:17;93540.47;;;-0.65
69420;BMP280;56612;52.030;113.524;2023-03-01T08:09:21;93541.53;;;-0.99
69420;BMP280;56612;52.030;113.524;2023-03-01T08:12:25;93535.88;;;-1.15
69420;BMP280;56612;52.030;113.524;2023-03-01T08:15:30;93537.97;;;-1.33
69420;BMP280;56612;52.030;113.524;2023-03-01T08:18:33;93543.47;;;-1.09
69420;BMP280;56612;52.030;113.524;2023-03-01T08:21:38;93530.25;;;-1.21
69420;BMP280;56612;52.030;113.524;2023-03-01T08:24:41;93526.81;;;-1.33
69420;BMP280;56612;52.030;113.524;2023-03-01T08:27:44;93509.25;;;-1.40
69420;BMP280;56612;52.030;113.524;2023-03-01T08:30:47;93501.66;;;-1.46
69420;BMP280;56612;52.030;113.524;2023-03-01T08:33:53;93487.16;;;-1.47
69420;BMP280;56612;52.030;113.524;2023-03-01T08:37:00;93491.59;;;-1.50
69420;BMP280;56612;52.030;113.524;2023-03-01T08:40:04;93480.69;;;-1.36
69420;BMP280;56612;52.030;113.524;2023-03-01T08:43:11;93485.09;;;-1.49
69420;BMP280;56612;52.030;113.524;2023-03-01T08:46:15;93483.34;;;-1.56
69420;BMP280;56612;52.030;113.524;2023-03-01T08:49:20;93472.44;;;-1.62
69420;BMP280;56612;52.030;113.524;2023-03-01T08:52:24;93466.63;;;-1.80
69420;BMP280;56612;52.030;113.524;2023-03-01T08:55:27;93461.25;;;-1.72
69420;BMP280;56612;52.030;113.524;2023-03-01T08:58:31;93453.84;;;-1.76
69420;BMP280;56612;52.030;113.524;2023-03-01T09:01:35;93451.22;;;-1.66
69420;BMP280;56612;52.030;113.524;2023-03-01T09:04:39;93436.84;;;-1.46
69420;BMP280;56612;52.030;113.524;2023-03-01T09:07:43;93439.03;;;-1.42
69420;BMP280;56612;52.030;113.524;2023-03-01T09:10:47;93427.31;;;-1.51
69420;BMP280;56612;52.030;113.524;2023-03-01T09:13:51;93430.38;;;-1.54
69420;BMP280;56612;52.030;113.524;2023-03-01T09:16:55;93438.25;;;-1.64
69420;BMP280;56612;52.030;113.524;2023-03-01T09:19:58;93420.47;;;-1.75
69420;BMP280;56612;52.030;113.524;2023-03-01T09:23:03;93417.16;;;-1.85
69420;BMP280;56612;52.030;113.524;2023-03-01T09:26:07;93409.44;;;-1.83
69420;BMP280;56612;52.030;113.524;2023-03-01T09:29:12;93404.63;;;-1.87
69420;BMP280;56612;52.030;113.524;2023-03-01T09:32:16;93407.06;;;-1.89
69420;BMP280;56612;52.030;113.524;2023-03-01T09:35:20;93393.00;;;-1.93
69420;BMP280;56612;52.030;113.524;2023-03-01T09:38:26;93394.25;;;-1.94
69420;BMP280;56612;52.030;113.524;2023-03-01T09:42:02;93394.53;;;-2.00
69420;BMP280;56612;52.030;113.524;2023-03-01T09:45:11;93399.75;;;-2.10
69420;BMP280;56612;52.030;113.524;2023-03-01T09:48:23;93401.53;;;-2.22
69420;BMP280;56612;52.030;113.524;2023-03-01T09:51:35;93391.47;;;-2.35
69420;BMP280;56612;52.030;113.524;2023-03-01T09:54:39;93381.13;;;-2.43
69420;BMP280;56612;52.030;113.524;2023-03-01T09:57:57;93380.56;;;-2.41
69420;BMP280;56612;52.030;113.524;2023-03-01T10:04:48;93379.44;;;-2.58
69420;BMP280;56612;52.030;113.524;2023-03-01T10:11:28;93373.25;;;-2.52
69420;BMP280;56612;52.030;113.524;2023-03-01T10:14:38;93369.69;;;-2.57
69420;BMP280;56612;52.030;113.524;2023-03-01T10:21:01;93356.28;;;-2.71
69420;BMP280;56612;52.030;113.524;2023-03-01T10:24:12;93351.84;;;-2.78
69420;BMP280;56612;52.030;113.524;2023-03-01T10:27:35;93352.97;;;-2.81
69420;BMP280;56612;52.030;113.524;2023-03-01T10:30:44;93351.28;;;-2.86
69420;BMP280;56612;52.030;113.524;2023-03-01T10:33:51;93344.13;;;-2.86
69420;BMP280;56612;52.030;113.524;2023-03-01T10:40:16;93320.72;;;-2.83
69420;BMP280;56612;52.030;113.524;2023-03-01T10:44:09;93305.59;;;-2.85
69420;BMP280;56612;52.030;113.524;2023-03-01T10:46:59;93302.72;;;-2.89
69420;BMP280;56612;52.030;113.524;2023-03-01T10:50:05;93301.97;;;-2.99
69420;BMP280;56612;52.030;113.524;2023-03-01T10:56:27;93298.78;;;-3.07
69420;BMP280;56612;52.030;113.524;2023-03-01T10:59:39;93298.91;;;-3.15
69420;BMP280;56612;52.030;113.524;2023-03-01T11:02:49;93282.81;;;-3.21
69420;BMP280;56612;52.030;113.524;2023-03-01T11:12:20;93273.59;;;-3.03
69420;BMP280;56612;52.030;113.524;2023-03-01T11:15:28;93271.28;;;-2.99
69420;BMP280;56612;52.030;113.524;2023-03-01T11:18:33;93266.47;;;-3.02
69420;BMP280;56612;52.030;113.524;2023-03-01T11:22:12;93248.19;;;-2.93
69420;BMP280;56612;52.030;113.524;2023-03-01T11:25:17;93256.59;;;-2.94
69420;BMP280;56612;52.030;113.524;2023-03-01T11:28:22;93257.44;;;-2.92
69420;BMP280;56612;52.030;113.524;2023-03-01T11:31:28;93246.44;;;-2.90
69420;BMP280;56612;52.030;113.524;2023-03-01T11:34:40;93234.88;;;-2.87
69420;BMP280;56612;52.030;113.524;2023-03-01T11:41:25;93231.16;;;-2.74
69420;BMP280;56612;52.030;113.524;2023-03-01T11:44:31;93216.16;;;-2.83
69420;BMP280;56612;52.030;113.524;2023-03-01T11:48:05;93230.31;;;-2.77
69420;BMP280;56612;52.030;113.524;2023-03-01T12:01:53;93212.84;;;-2.55
69420;BMP280;56612;52.030;113.524;2023-03-01T12:05:41;93198.41;;;-2.56
69420;BMP280;56612;52.030;113.524;2023-03-01T12:19:20;93164.94;;;-2.38
69420;BMP280;56612;52.030;113.524;2023-03-01T12:22:31;93144.81;;;-2.36
69420;BMP280;56612;52.030;113.524;2023-03-01T12:26:34;93141.38;;;-2.28
69420;BMP280;56612;52.030;113.524;2023-03-01T12:29:47;93148.97;;;-2.52
69420;BMP280;56612;52.030;113.524;2023-03-01T12:36:52;93131.22;;;-2.73
69420;BMP280;56612;52.030;113.524;2023-03-01T12:50:41;93094.88;;;-2.49
69420;BMP280;56612;52.030;113.524;2023-03-01T12:53:50;93094.66;;;-2.32
69420;BMP280;56612;52.030;113.524;2023-03-01T12:57:02;93077.06;;;-2.41
69420;BMP280;56612;52.030;113.524;2023-03-01T13:06:38;93057.72;;;-2.17
69420;BMP280;56612;52.030;113.524;2023-03-01T13:10:06;93057.88;;;-2.24
69420;BMP280;56612;52.030;113.524;2023-03-01T13:13:25;93060.28;;;-2.38
69420;BMP280;56612;52.030;113.524;2023-03-01T13:19:32;93049.53;;;-2.42
69420;BMP280;56612;52.030;113.524;2023-03-01T13:22:39;93036.75;;;-2.48
69420;BMP280;56612;52.030;113.524;2023-03-01T13:26:09;93030.56;;;-2.52
69420;BMP280;56612;52.030;113.524;2023-03-01T13:29:26;93021.13;;;-2.67
69420;BMP280;56612;52.030;113.524;2023-03-01T13:32:32;93021.72;;;-2.78
69420;BMP280;56612;52.030;113.524;2023-03-01T13:35:51;93025.97;;;-2.83
69420;BMP280;56612;52.030;113.524;2023-03-01T13:39:05;93026.38;;;-2.77
69420;BMP280;56612;52.030;113.524;2023-03-01T13:42:46;93025.00;;;-2.78
69420;BMP280;56612;52.030;113.524;2023-03-01T13:46:23;93020.19;;;-2.81
69420;BMP280;56612;52.030;113.524;2023-03-01T13:49:32;93002.47;;;-2.93
69420;BMP280;56612;52.030;113.524;2023-03-01T13:52:54;93006.91;;;-3.15
69420;BMP280;56612;52.030;113.524;2023-03-01T13:56:10;92998.41;;;-3.34
69420;BMP280;56612;52.030;113.524;2023-03-01T13:59:19;92999.09;;;-3.53
69420;BMP280;56612;52.030;113.524;2023-03-01T14:02:23;92988.66;;;-3.92
69420;BMP280;56612;52.030;113.524;2023-03-01T14:05:28;92982.97;;;-4.08
69420;BMP280;56612;52.030;113.524;2023-03-01T14:08:33;92975.84;;;-3.98
69420;BMP280;56612;52.030;113.524;2023-03-01T14:18:26;92967.88;;;-4.00
69420;BMP280;56612;52.030;113.524;2023-03-01T14:21:33;92953.75;;;-3.87
69420;BMP280;56612;52.030;113.524;2023-03-01T14:24:44;92946.59;;;-3.67
69420;BMP280;56612;52.030;113.524;2023-03-01T14:27:59;92952.50;;;-3.37
69420;BMP280;56612;52.030;113.524;2023-03-01T14:31:32;92951.41;;;-3.44
69420;BMP280;56612;52.030;113.524;2023-03-01T14:34:50;92945.63;;;-3.52
69420;BMP280;56612;52.030;113.524;2023-03-01T14:37:54;92945.63;;;-3.52
69420;BMP280;56612;52.030;113.524;2023-03-01T14:41:00;92942.47;;;-3.51
69420;BMP280;56612;52.030;113.524;2023-03-01T14:44:14;92953.47;;;-3.52
69420;BMP280;56612;52.030;113.524;2023-03-01T14:47:38;92946.19;;;-3.54
69420;BMP280;56612;52.030;113.524;2023-03-01T14:50:46;92936.56;;;-3.51
69420;BMP280;56612;52.030;113.524;2023-03-01T14:53:50;92932.88;;;-3.48
69420;BMP280;56612;52.030;113.524;2023-03-01T14:56:59;92926.38;;;-3.37
69420;BMP280;56612;52.030;113.524;2023-03-01T15:00:06;92926.78;;;-3.31
69420;BMP280;56612;52.030;113.524;2023-03-01T15:03:35;92931.69;;;-3.26
69420;BMP280;56612;52.030;113.524;2023-03-01T15:06:43;92931.13;;;-3.15
69420;BMP280;56612;52.030;113.524;2023-03-01T15:09:47;92929.63;;;-3.08
69420;BMP280;56612;52.030;113.524;2023-03-01T15:12:52;92919.84;;;-3.07
69420;BMP280;56612;52.030;113.524;2023-03-01T15:19:16;92909.06;;;-2.92
69420;BMP280;56612;52.030;113.524;2023-03-01T15:22:22;92899.81;;;-2.83
69420;BMP280;56612;52.030;113.524;2023-03-01T15:25:29;92892.47;;;-2.75
69420;BMP280;56612;52.030;113.524;2023-03-01T15:28:42;92888.97;;;-2.59
69420;BMP280;56612;52.030;113.524;2023-03-01T15:32:30;92881.53;;;-2.41
69420;BMP280;56612;52.030;113.524;2023-03-01T15:35:42;92865.38;;;-2.27
69420;BMP280;56612;52.030;113.524;2023-03-01T15:38:55;92859.63;;;-2.14
69420;BMP280;56612;52.030;113.524;2023-03-01T15:42:01;92860.59;;;-1.98
69420;BMP280;56612;52.030;113.524;2023-03-01T15:48:19;92856.09;;;-2.19
69420;BMP280;56612;52.030;113.524;2023-03-01T15:51:30;92862.44;;;-2.22
69420;BMP280;56612;52.030;113.524;2023-03-01T15:54:35;92845.75;;;-2.38
69420;BMP280;56612;52.030;113.524;2023-03-01T15:57:38;92853.03;;;-2.37
69420;BMP280;56612;52.030;113.524;2023-03-01T16:00:43;92837.63;;;-2.42
69420;BMP280;56612;52.030;113.524;2023-03-01T16:04:01;92832.06;;;-2.48
69420;BMP280;56612;52.030;113.524;2023-03-01T16:07:06;92821.13;;;-2.45
69420;BMP280;56612;52.030;113.524;2023-03-01T16:10:10;92817.16;;;-2.46
69420;BMP280;56612;52.030;113.524;2023-03-01T16:13:13;92822.97;;;-2.47
69420;BMP280;56612;52.030;113.524;2023-03-01T16:16:17;92832.16;;;-2.46
69420;BMP280;56612;52.030;113.524;2023-03-01T16:19:20;92821.38;;;-2.41
69420;BMP280;56612;52.030;113.524;2023-03-01T16:22:24;92823.69;;;-2.35
69420;BMP280;56612;52.030;113.524;2023-03-01T16:25:31;92826.69;;;-2.29
69420;BMP280;56612;52.030;113.524;2023-03-01T16:28:36;92825.03;;;-2.34
69420;BMP280;56612;52.030;113.524;2023-03-01T16:31:40;92834.94;;;-2.33
69420;BMP280;56612;52.030;113.524;2023-03-01T16:34:43;92829.59;;;-2.35
69420;BMP280;56612;52.030;113.524;2023-03-01T16:37:47;92816.28;;;-2.39
69420;BMP280;56612;52.030;113.524;2023-03-01T16:40:52;92824.66;;;-2.40
69420;BMP280;56612;52.030;113.524;2023-03-01T16:43:56;92816.41;;;-2.37
69420;BMP280;56612;52.030;113.524;2023-03-01T16:47:00;92821.88;;;-2.33
69420;BMP280;56612;52.030;113.524;2023-03-01T16:50:03;92814.22;;;-2.40
69420;BMP280;56612;52.030;113.524;2023-03-01T16:53:06;92805.69;;;-2.41
69420;BMP280;56612;52.030;113.524;2023-03-01T16:56:12;92812.53;;;-2.36
69420;BMP280;56612;52.030;113.524;2023-03-01T16:59:15;92816.59;;;-2.44
69420;BMP280;56612;52.030;113.524;2023-03-01T17:02:19;92820.75;;;-2.51
69420;BMP280;56612;52.030;113.524;2023-03-01T17:05:24;92815.41;;;-2.53
69420;BMP280;56612;52.030;113.524;2023-03-01T17:08:28;92816.66;;;-2.54
69420;BMP280;56612;52.030;113.524;2023-03-01T17:11:32;92823.59;;;-2.59
69420;BMP280;56612;52.030;113.524;2023-03-01T17:14:35;92806.88;;;-2.53
69420;BMP280;56612;52.030;113.524;2023-03-01T17:17:40;92809.06;;;-2.50
69420;BMP280;56612;52.030;113.524;2023-03-01T17:20:44;92818.22;;;-2.39
69420;BMP280;56612;52.030;113.524;2023-03-01T17:23:48;92822.19;;;-2.38
69420;BMP280;56612;52.030;113.524;2023-03-01T17:26:51;92820.16;;;-2.40
69420;BMP280;56612;52.030;113.524;2023-03-01T17:29:54;92821.38;;;-2.41
69420;BMP280;56612;52.030;113.524;2023-03-01T17:32:58;92820.16;;;-2.40
69420;BMP280;56612;52.030;113.524;2023-03-01T17:36:02;92826.06;;;-2.39
69420;BMP280;56612;52.030;113.524;2023-03-01T17:39:05;92826.50;;;-2.43
69420;BMP280;56612;52.030;113.524;2023-03-01T17:42:09;92836.38;;;-2.41
69420;BMP280;56612;52.030;113.524;2023-03-01T17:45:12;92815.19;;;-2.57
69420;BMP280;56612;52.030;113.524;2023-03-01T17:48:15;92819.53;;;-2.50
69420;BMP280;56612;52.030;113.524;2023-03-01T17:51:19;92818.72;;;-2.52
69420;BMP280;56612;52.030;113.524;2023-03-01T17:54:23;92807.25;;;-2.47
69420;BMP280;56612;52.030;113.524;2023-03-01T17:57:27;92817.47;;;-2.51
69420;BMP280;56612;52.030;113.524;2023-03-01T18:00:32;92822.38;;;-2.46
69420;BMP280;56612;52.030;113.524;2023-03-01T18:03:36;92817.59;;;-2.49
69420;BMP280;56612;52.030;113.524;2023-03-01T18:06:40;92822.50;;;-2.44
69420;BMP280;56612;52.030;113.524;2023-03-01T18:09:44;92817.97;;;-2.43
69420;BMP280;56612;52.030;113.524;2023-03-01T18:12:47;92816.59;;;-2.44
69420;BMP280;56612;52.030;113.524;2023-03-01T18:15:51;92822.28;;;-2.48
69420;BMP280;56612;52.030;113.524;2023-03-01T18:18:56;92817.03;;;-2.48
69420;BMP280;56612;52.030;113.524;2023-03-01T18:21:59;92818.97;;;-2.48
69420;BMP280;56612;52.030;113.524;2023-03-01T18:25:04;92823.81;;;-2.54
69420;BMP280;56612;52.030;113.524;2023-03-01T18:28:08;92829.28;;;-2.50
69420;BMP280;56612;52.030;113.524;2023-03-01T18:31:13;92833.53;;;-2.45
69420;BMP280;56612;52.030;113.524;2023-03-01T18:34:20;92823.63;;;-2.47
69420;BMP280;56612;52.030;113.524;2023-03-01T18:37:24;92816.22;;;-2.50
69420;BMP280;56612;52.030;113.524;2023-03-01T18:40:30;92813.38;;;-2.54
69420;BMP280;56612;52.030;113.524;2023-03-01T18:43:34;92828.00;;;-2.61
69420;BMP280;56612;52.030;113.524;2023-03-01T18:46:37;92819.19;;;-2.66
69420;BMP280;56612;52.030;113.524;2023-03-01T18:49:42;92809.88;;;-2.69
69420;BMP280;56612;52.030;113.524;2023-03-01T18:52:45;92820.72;;;-2.63
69420;BMP280;56612;52.030;113.524;2023-03-01T18:55:49;92820.75;;;-2.72
69420;BMP280;56612;52.030;113.524;2023-03-01T18:58:52;92822.13;;;-2.71